createdAt,value
2022-11-26T00:00:43.592Z,7.862876254180602
2022-11-26T00:07:12.893Z,7.709030100334449
2022-11-26T00:32:14.874Z,8.173913043478262
2022-11-26T00:41:27.487Z,7.642140468227424
2022-11-26T00:47:58.732Z,9.96989966555184
2022-11-26T00:56:24.942Z,7.826086956521739
2022-11-26T01:02:54.143Z,9.153846153846153
2022-11-26T01:09:35.783Z,9.33779264214047
2022-11-26T01:16:05.479Z,7.183946488294314
2022-11-26T01:22:35.252Z,8.31438127090301
2022-11-26T01:29:05.270Z,4.936454849498328
2022-11-26T01:35:37.081Z,5.9799331103678925
2022-11-26T01:47:45.862Z,7.54180602006689
2022-11-26T01:54:16.654Z,5.60200668896321
2022-11-26T02:00:48.518Z,4.725752508361204
2022-11-26T02:07:19.494Z,5.110367892976589
2022-11-26T02:13:54.584Z,6.892976588628763
2022-11-26T02:25:55.098Z,4.605351170568562
2022-11-26T02:32:24.696Z,6.555183946488294
2022-11-26T02:49:14.234Z,5.036789297658863
2022-11-26T02:55:43.477Z,5.712374581939799
2022-11-26T03:02:13.349Z,4.6521739130434785
2022-11-26T03:08:47.683Z,4.986622073578595
2022-11-26T03:15:25.341Z,4.177257525083612
2022-11-26T03:21:55.554Z,5.4280936454849495
2022-11-26T03:28:26.672Z,3.120401337792642
2022-11-26T03:35:09.203Z,3.9966555183946486
2022-11-26T03:41:40.160Z,5.240802675585284
2022-11-26T03:48:11.879Z,4.2040133779264215
2022-11-26T03:54:43.446Z,4.8762541806020065
2022-11-26T04:01:13.426Z,7.1003344481605355
2022-11-26T04:07:43.537Z,7.404682274247492
2022-11-26T04:14:21.366Z,5.789297658862877
2022-11-26T04:20:53.241Z,6.381270903010034
2022-11-26T04:27:23.877Z,5.150501672240803
2022-11-26T04:33:53.952Z,5.344481605351171
2022-11-26T04:40:26.674Z,5.879598662207358
2022-11-26T04:46:56.480Z,5.65886287625418
2022-11-26T04:53:25.837Z,6.648829431438127
2022-11-26T05:15:49.982Z,6.842809364548495
2022-11-26T05:22:20.864Z,7.963210702341137
2022-11-26T05:35:20.284Z,7.785953177257525
2022-11-26T05:47:09.276Z,5.769230769230769
2022-11-26T05:53:39.824Z,8.040133779264215
2022-11-26T06:00:09.804Z,6.327759197324415
2022-11-26T06:06:39.527Z,6.745819397993311
2022-11-26T06:13:17.653Z,8.354515050167224
2022-11-26T06:19:44.930Z,7.923076923076923
2022-11-26T06:26:13.072Z,7.026755852842809
2022-11-26T06:32:43.586Z,6.916387959866221
2022-11-26T06:39:13.583Z,6.217391304347826
2022-11-26T07:03:07.452Z,8.08361204013378
2022-11-26T07:18:49.616Z,6.093645484949833
2022-11-26T07:25:46.026Z,6.498327759197324
2022-11-26T07:32:33.273Z,6.88628762541806
2022-11-26T07:39:00.354Z,6.806020066889632
2022-11-26T07:45:28.358Z,6.160535117056856
2022-11-26T07:52:36.022Z,6.956521739130435
2022-11-26T08:05:38.276Z,6.1638795986622075
2022-11-26T08:18:05.033Z,7.832775919732441
2022-11-26T08:24:32.567Z,6.444816053511706
2022-11-26T08:30:59.495Z,6.642140468227424
2022-11-26T08:42:54.005Z,7.558528428093646
2022-11-26T08:51:41.916Z,7.926421404682274
2022-11-26T08:58:52.061Z,5.036789297658863
2022-11-26T09:05:44.876Z,4.996655518394649
2022-11-26T09:16:12.815Z,6.9799331103678925
2022-11-26T09:22:40.274Z,5.535117056856187
2022-11-26T09:29:07.517Z,5.364548494983278
2022-11-26T09:35:40.844Z,6.147157190635451
2022-11-26T09:42:08.063Z,6.274247491638796
2022-11-26T09:48:36.973Z,7.270903010033445
2022-11-26T09:55:05.436Z,6.809364548494983
2022-11-26T10:01:42.018Z,8.615384615384615
2022-11-26T10:08:14.128Z,7.51505016722408
2022-11-26T10:14:50.925Z,7.254180602006689
2022-11-26T10:21:32.586Z,7.842809364548495
2022-11-26T10:28:16.753Z,9.394648829431437
2022-11-26T10:34:47.259Z,9.548494983277592
2022-11-26T10:45:26.712Z,8.157190635451505
2022-11-26T10:52:01.890Z,7.538461538461538
2022-11-26T10:58:34.422Z,9.327759197324415
2022-11-26T11:05:05.975Z,9.05685618729097
2022-11-26T11:11:50.387Z,10.839464882943144
2022-11-26T11:18:20.336Z,11.066889632107024
2022-11-26T11:24:49.940Z,9.632107023411372
2022-11-26T11:49:49.406Z,13.521739130434783
2022-11-26T12:00:29.239Z,14.137123745819398
2022-11-26T12:07:03.780Z,14.548494983277592
2022-11-26T12:14:26.196Z,17.08361204013378
2022-11-26T12:20:57.807Z,15.25752508361204
2022-11-26T12:29:37.339Z,19.130434782608695
2022-11-26T12:36:07.405Z,19.60535117056856
2022-11-26T12:43:53.031Z,22.16722408026756
2022-11-26T12:50:24.410Z,20.698996655518396
2022-11-26T12:56:56.038Z,19.274247491638796
2022-11-26T13:09:30.359Z,20.046822742474916
2022-11-26T13:16:02.842Z,16.384615384615383
2022-11-26T13:22:36.192Z,19.872909698996654
2022-11-26T13:33:17.405Z,20.153846153846153
2022-11-26T13:40:54.756Z,17.782608695652176
2022-11-26T13:47:37.657Z,16.899665551839465
2022-11-26T14:01:02.341Z,17.11705685618729
2022-11-26T14:07:36.349Z,18.82943143812709
2022-11-26T14:14:10.820Z,20.03010033444816
2022-11-26T14:28:29.299Z,21.63545150501672
2022-11-26T14:35:40.131Z,20.234113712374583
2022-11-26T14:42:40.527Z,20.451505016722408
2022-11-26T14:51:20.877Z,23.525083612040135
2022-11-26T14:59:37.570Z,25.91304347826087
2022-11-26T15:06:19.586Z,25.418060200668897
2022-11-26T15:13:08.788Z,20.759197324414714
2022-11-26T15:24:07.254Z,24.093645484949832
2022-11-26T15:30:49.495Z,18.140468227424748
2022-11-26T15:39:45.340Z,21.668896321070235
2022-11-26T15:46:23.115Z,23.74247491638796
2022-11-26T15:52:57.681Z,23.010033444816052
2022-11-26T16:08:49.374Z,23.632107023411372
2022-11-26T16:16:49.946Z,26.387959866220736
2022-11-26T16:23:28.484Z,23.210702341137125
2022-11-26T16:33:19.055Z,25.438127090301002
2022-11-26T16:48:04.454Z,26.448160535117058
2022-11-26T16:54:39.161Z,31.598662207357858
2022-11-26T17:01:43.602Z,32.66555183946488
2022-11-26T17:08:24.208Z,32.869565217391305
2022-11-26T17:23:57.016Z,33.94648829431438
2022-11-26T17:30:36.675Z,34.187290969899664
2022-11-26T17:37:46.351Z,30.678929765886288
2022-11-26T17:53:51.689Z,29.474916387959865
2022-11-26T18:00:26.917Z,34.591973244147155
2022-11-26T18:07:05.267Z,28.307692307692307
2022-11-26T18:13:40.959Z,30.140468227424748
2022-11-26T18:20:55.462Z,30.39799331103679
2022-11-26T18:27:29.868Z,30.872909698996654
2022-11-26T18:40:11.952Z,30.093645484949832
2022-11-26T18:50:35.591Z,26.13377926421405
2022-11-26T18:57:10.498Z,25.652173913043477
2022-11-26T19:03:45.086Z,25.752508361204015
2022-11-26T19:12:33.984Z,30.237458193979933
2022-11-26T19:20:21.357Z,26.22742474916388
2022-11-26T19:35:40.352Z,25.501672240802677
2022-11-26T19:51:50.425Z,27.899665551839465
2022-11-26T19:58:26.927Z,24.528428093645484
2022-11-26T20:04:59.048Z,29.989966555183948
2022-11-26T20:11:39.650Z,23.016722408026755
2022-11-26T20:28:53.821Z,17.565217391304348
2022-11-26T20:35:29.162Z,21.05016722408027
2022-11-26T20:48:36.738Z,16.220735785953178
2022-11-26T20:55:12.269Z,18.431438127090303
2022-11-26T21:05:52.303Z,17.83277591973244
2022-11-26T21:17:06.008Z,18.45819397993311
2022-11-26T21:23:48.943Z,15.548494983277592
2022-11-26T21:33:12.596Z,16.70903010033445
2022-11-26T21:40:01.860Z,15.862876254180602
2022-11-26T21:46:42.212Z,14.26086956521739
2022-11-26T21:53:28.446Z,15.575250836120402
2022-11-26T22:01:43.263Z,21.608695652173914
2022-11-26T22:08:21.059Z,18.99665551839465
2022-11-26T22:20:44.891Z,15.214046822742475
2022-11-26T22:27:38.525Z,13.48494983277592
2022-11-26T22:34:37.347Z,16.110367892976587
2022-11-26T23:01:31.134Z,13.331103678929766
2022-11-26T23:09:49.048Z,12.190635451505017
2022-11-26T23:18:35.482Z,10.448160535117056
2022-11-26T23:33:29.760Z,11.578595317725753
2022-11-26T23:40:03.904Z,9.822742474916389
2022-11-26T23:46:43.084Z,13.11371237458194
2022-11-26T23:53:21.821Z,9.989966555183946
2022-11-26T23:59:59.137Z,7.548494983277592
